Dades meteomassalio
Diari Summary for Juny 20, 2017 Units:  English    Metric   Both
« Previous Day
Next Day »
Diari Semanal Mensual Anual Personalitzat
  Maxima: Minima: Mijana:
Temperatura: TemperatureC °F 20.9 °F 27.8 °F
Rosada: DewpointC °F 11.8 °F 15.7 °F
Humitat: Humidity % 32 % 49 %
Velocitat del vent: WindSpeedKMH mph 0.0 mph 5.9 mph
Racha vent: WindSpeedGustKMH mph - -
Vent:- - SSE
Pressio: PressurehPa in 1013.8 in -
Pluja: 0.0 in    
Historical Graphs
 
 
Tabular Data for Juny 20, 2017
Time Temperature Dew Point Pressure Wind Wind Speed Wind Gust Humidity Rainfall Rate (Hourly) solar Conditions
TemperatureC °F DewpointC °F PressurehPa in Calm     Humidity % HourlyPrecipMM in SolarRadiationWatts/m^2 W/m2 Conditions
00:00 26.4 °F 12.1 °F 1017.5 in Calm     41 % 0.0 in 0.0 W/m2 CLR
00:05 26.6 °F 12.2 °F 1017.2 in Calm     41 % 0.0 in 0.0 W/m2 CLR
00:10 26.6 °F 12.2 °F 1017.2 in Calm     41 % 0.0 in 0.0 W/m2 CLR
00:15 26.4 °F 12.1 °F 1017.2 in Calm     41 % 0.0 in 0.0 W/m2 CLR
00:20 26.3 °F 12.4 °F 1017.2 in Calm     42 % 0.0 in 0.0 W/m2 CLR
00:25 26.2 °F 12.2 °F 1017.2 in Calm     42 % 0.0 in 0.0 W/m2 CLR
00:30 26.1 °F 12.2 °F 1017.2 in Calm     42 % 0.0 in 0.0 W/m2 CLR
00:35 26.0 °F 12.1 °F 1017.2 in Calm     42 % 0.0 in 0.0 W/m2 CLR
00:40 25.9 °F 12.1 °F 1017.2 in Calm     42 % 0.0 in 0.0 W/m2 CLR
00:45 26.1 °F 11.8 °F 1017.2 in Calm     41 % 0.0 in 0.0 W/m2 CLR
00:50 26.1 °F 11.8 °F 1017.2 in Calm     41 % 0.0 in 0.0 W/m2 CLR
00:55 26.2 °F 11.9 °F 1017.5 in Calm     41 % 0.0 in 0.0 W/m2 CLR
01:00 26.1 °F 11.8 °F 1017.2 in Calm     41 % 0.0 in 0.0 W/m2 CLR
01:05 25.8 °F 11.9 °F 1017.5 in Calm     42 % 0.0 in 0.0 W/m2 CLR
01:10 25.8 °F 11.9 °F 1017.5 in Calm     42 % 0.0 in 0.0 W/m2 CLR
01:15 25.8 °F 11.9 °F 1017.2 in Calm     42 % 0.0 in 0.0 W/m2 CLR
01:20 25.8 °F 11.9 °F 1017.2 in Calm     42 % 0.0 in 0.0 W/m2 CLR
01:25 25.8 °F 11.9 °F 1017.5 in Calm     42 % 0.0 in 0.0 W/m2 CLR
01:30 25.6 °F 12.1 °F 1017.2 in Calm     43 % 0.0 in 0.0 W/m2 CLR
01:35 25.5 °F 12.0 °F 1017.2 in Calm     43 % 0.0 in 0.0 W/m2 CLR
01:40 25.6 °F 12.1 °F 1017.2 in Calm     43 % 0.0 in 0.0 W/m2 CLR
01:41 25.6 °F 12.1 °F 1017.2 in Calm     43 % 0.0 in 0.0 W/m2 CLR
01:46 25.3 °F 12.5 °F 1017.2 in Calm     45 % 0.0 in 0.0 W/m2 CLR
01:51 24.9 °F 12.1 °F 1017.2 in Calm     45 % 0.0 in 0.0 W/m2 CLR
01:56 24.7 °F 12.3 °F 1017.2 in Calm     46 % 0.0 in 0.0 W/m2 CLR
02:01 24.6 °F 11.9 °F 1017.2 in Calm     45 % 0.0 in 0.0 W/m2 CLR
02:06 24.6 °F 12.5 °F 1017.2 in Calm     47 % 0.0 in 0.0 W/m2 CLR
02:07 24.6 °F 12.2 °F 1017.2 in Calm     46 % 0.0 in 0.0 W/m2 CLR
02:12 24.6 °F 12.5 °F 1017.2 in Calm     47 % 0.0 in 0.0 W/m2 CLR
02:17 24.4 °F 12.3 °F 1017.2 in Calm     47 % 0.0 in 0.0 W/m2 CLR
02:22 24.5 °F 12.4 °F 1017.2 in Calm     47 % 0.0 in 0.0 W/m2 CLR
02:27 24.6 °F 12.5 °F 1016.8 in Calm     47 % 0.0 in 0.0 W/m2 CLR
02:32 24.4 °F 12.1 °F 1016.8 in Calm     46 % 0.0 in 0.0 W/m2 CLR
02:37 24.4 °F 12.0 °F 1016.8 in Calm     46 % 0.0 in 0.0 W/m2 CLR
02:42 24.3 °F 11.9 °F 1016.8 in Calm     46 % 0.0 in 0.0 W/m2 CLR
02:47 24.5 °F 11.8 °F 1017.2 in Calm     45 % 0.0 in 0.0 W/m2 CLR
02:52 24.8 °F 12.1 °F 1017.2 in Calm     45 % 0.0 in 0.0 W/m2 CLR
02:57 25.4 °F 13.3 °F 1017.2 in WNW 14.8 mph 14.8 mph 47 % 0.0 in 0.0 W/m2 CLR
03:02 26.1 °F 13.9 °F 1017.2 in West 8.0 mph 8.0 mph 47 % 0.0 in 0.0 W/m2 CLR
03:07 26.3 °F 15.3 °F 1017.2 in West 25.9 mph 25.9 mph 51 % 0.0 in 0.0 W/m2 CLR
03:12 26.1 °F 15.5 °F 1017.2 in WNW 13.0 mph 13.0 mph 52 % 0.0 in 0.0 W/m2 CLR
03:17 25.9 °F 15.6 °F 1017.2 in West 18.5 mph 18.5 mph 53 % 0.0 in 0.0 W/m2 CLR
03:22 25.7 °F 15.7 °F 1017.2 in West 14.8 mph 14.8 mph 54 % 0.0 in 0.0 W/m2 CLR
03:27 25.6 °F 15.6 °F 1017.2 in West 16.7 mph 16.7 mph 54 % 0.0 in 0.0 W/m2 CLR
03:32 25.4 °F 15.7 °F 1017.2 in West 18.5 mph 18.5 mph 55 % 0.0 in 0.0 W/m2 CLR
03:37 25.3 °F 15.9 °F 1017.2 in West 16.7 mph 16.7 mph 56 % 0.0 in 0.0 W/m2 CLR
03:42 25.1 °F 16.0 °F 1017.2 in West 16.1 mph 16.1 mph 57 % 0.0 in 0.0 W/m2 CLR
03:47 24.9 °F 16.1 °F 1017.2 in WNW 16.7 mph 16.7 mph 58 % 0.0 in 0.0 W/m2 CLR
03:52 24.7 °F 16.2 °F 1017.2 in West 13.0 mph 13.0 mph 59 % 0.0 in 0.0 W/m2 CLR
03:57 24.6 °F 16.1 °F 1017.2 in WNW 18.5 mph 18.5 mph 59 % 0.0 in 0.0 W/m2 CLR
04:02 24.5 °F 16.2 °F 1017.2 in West 14.8 mph 14.8 mph 60 % 0.0 in 0.0 W/m2 CLR
04:07 24.3 °F 16.3 °F 1017.2 in WNW 14.8 mph 14.8 mph 61 % 0.0 in 0.0 W/m2 CLR
04:12 24.2 °F 16.2 °F 1017.2 in West 18.5 mph 18.5 mph 61 % 0.0 in 0.0 W/m2 CLR
04:17 24.1 °F 16.4 °F 1017.2 in West 13.0 mph 13.0 mph 62 % 0.0 in 0.0 W/m2 CLR
04:22 24.1 °F 16.3 °F 1017.2 in WSW 4.8 mph 4.8 mph 62 % 0.0 in 0.0 W/m2 CLR
04:27 23.9 °F 16.4 °F 1016.8 in Calm     63 % 0.0 in 0.0 W/m2 CLR
04:32 23.8 °F 16.6 °F 1016.8 in West 9.3 mph 9.3 mph 64 % 0.0 in 0.0 W/m2 CLR
04:37 23.7 °F 16.5 °F 1016.8 in Calm     64 % 0.0 in 0.0 W/m2 CLR
04:42 23.6 °F 16.7 °F 1016.8 in Calm     65 % 0.0 in 0.0 W/m2 CLR
04:47 23.5 °F 16.6 °F 1016.8 in Calm     65 % 0.0 in 0.0 W/m2 CLR
04:52 23.3 °F 16.4 °F 1016.8 in Calm     65 % 0.0 in 0.0 W/m2 CLR
04:57 23.3 °F 16.6 °F 1016.8 in Calm     66 % 0.0 in 0.0 W/m2 CLR
05:02 23.2 °F 16.4 °F 1016.8 in Calm     66 % 0.0 in 0.0 W/m2 CLR
05:07 23.1 °F 16.3 °F 1016.8 in Calm     66 % 0.0 in 0.0 W/m2 CLR
05:12 23.0 °F 16.3 °F 1016.8 in Calm     66 % 0.0 in 0.0 W/m2 CLR
05:17 22.9 °F 16.3 °F 1016.8 in Calm     66 % 0.0 in 0.0 W/m2 CLR
05:22 22.9 °F 16.4 °F 1016.8 in Calm     67 % 0.0 in 0.0 W/m2 CLR
05:27 22.8 °F 16.3 °F 1016.5 in WSW 5.6 mph 5.6 mph 67 % 0.0 in 0.0 W/m2 CLR
05:32 22.7 °F 16.4 °F 1016.5 in Calm     68 % 0.0 in 0.0 W/m2 CLR
05:37 22.7 °F 16.7 °F 1016.5 in Calm     69 % 0.0 in 0.0 W/m2 CLR
05:42 22.6 °F 16.6 °F 1016.5 in Calm     69 % 0.0 in 0.0 W/m2 CLR
05:47 22.4 °F 16.5 °F 1016.5 in Calm     69 % 0.0 in 0.0 W/m2 CLR
05:52 22.3 °F 16.4 °F 1016.5 in Calm     69 % 0.0 in 0.0 W/m2 CLR
05:57 22.2 °F 16.5 °F 1016.5 in Calm     70 % 0.0 in 0.0 W/m2 CLR
06:02 22.1 °F 16.4 °F 1016.5 in Calm     70 % 0.0 in 0.0 W/m2 CLR
06:07 21.9 °F 16.2 °F 1016.5 in Calm     70 % 0.0 in 0.0 W/m2 CLR
06:12 21.8 °F 16.3 °F 1016.5 in Calm     71 % 0.0 in 0.0 W/m2 CLR
06:17 21.7 °F 16.2 °F 1016.1 in Calm     71 % 0.0 in 0.0 W/m2 OVC
06:22 21.6 °F 16.1 °F 1016.1 in Calm     71 % 0.0 in 0.0 W/m2 OVC
06:27 21.5 °F 16.2 °F 1016.5 in Calm     72 % 0.0 in 0.0 W/m2 OVC
06:32 21.4 °F 16.1 °F 1016.5 in Calm     72 % 0.0 in 5.0 W/m2 OVC
06:33 21.4 °F 16.1 °F 1016.5 in Calm     72 % 0.0 in 5.0 W/m2 OVC
06:38 21.3 °F 16.0 °F 1016.5 in Calm     72 % 0.0 in 7.0 W/m2 BKN
06:43 21.1 °F 16.1 °F 1016.5 in Calm     73 % 0.0 in 11.0 W/m2 BKN
06:48 21.0 °F 16.0 °F 1016.5 in Calm     73 % 0.0 in 16.0 W/m2 BKN
06:53 20.9 °F 16.1 °F 1016.5 in Calm     74 % 0.0 in 19.0 W/m2 BKN
06:58 20.9 °F 16.3 °F 1016.5 in Calm     75 % 0.0 in 23.0 W/m2 BKN
07:03 20.9 °F 16.1 °F 1016.5 in Calm     74 % 0.0 in 26.0 W/m2 BKN
07:08 20.9 °F 16.1 °F 1016.5 in Calm     74 % 0.0 in 35.0 W/m2 BKN
07:13 20.9 °F 16.3 °F 1016.5 in Calm     75 % 0.0 in 44.0 W/m2 BKN
07:18 20.9 °F 16.3 °F 1016.5 in Calm     75 % 0.0 in 53.0 W/m2 SCT
07:23 21.1 °F 16.2 °F 1016.8 in Calm     74 % 0.0 in 63.0 W/m2 SCT
07:28 21.2 °F 16.4 °F 1016.8 in Calm     74 % 0.0 in 74.0 W/m2 SCT
07:33 21.3 °F 16.2 °F 1016.8 in Calm     73 % 0.0 in 86.0 W/m2 FEW
07:39 21.5 °F 16.7 °F 1016.8 in Calm     74 % 0.0 in 98.0 W/m2 FEW
07:44 21.8 °F 16.7 °F 1016.8 in Calm     73 % 0.0 in 111.0 W/m2 CLR
07:49 22.0 °F 16.7 °F 1016.8 in Calm     72 % 0.0 in 125.0 W/m2 CLR
07:54 22.3 °F 16.8 °F 1016.8 in Calm     71 % 0.0 in 142.0 W/m2 CLR
07:59 22.7 °F 16.9 °F 1016.8 in Calm     70 % 0.0 in 158.0 W/m2 CLR
08:04 22.8 °F 16.6 °F 1016.8 in Calm     68 % 0.0 in 172.0 W/m2 CLR
08:09 23.0 °F 16.8 °F 1016.8 in Calm     68 % 0.0 in 188.0 W/m2 CLR
08:14 23.2 °F 16.5 °F 1016.8 in Calm     66 % 0.0 in 204.0 W/m2 CLR
08:19 23.5 °F 16.6 °F 1016.8 in Calm     65 % 0.0 in 220.0 W/m2 CLR
08:24 23.8 °F 16.6 °F 1016.8 in Calm     64 % 0.0 in 234.0 W/m2 CLR
08:29 24.1 °F 16.8 °F 1016.8 in Calm     64 % 0.0 in 248.0 W/m2 CLR
08:30 24.1 °F 16.6 °F 1016.8 in Calm     63 % 0.0 in 251.0 W/m2 CLR
08:35 24.3 °F 16.6 °F 1016.8 in Calm     62 % 0.0 in 269.0 W/m2 CLR
08:40 24.4 °F 16.7 °F 1016.8 in Calm     62 % 0.0 in 281.0 W/m2 CLR
08:45 24.7 °F 16.7 °F 1016.8 in Calm     61 % 0.0 in 292.0 W/m2 CLR
08:50 25.1 °F 16.6 °F 1016.8 in Calm     59 % 0.0 in 308.0 W/m2 CLR
08:55 25.5 °F 16.6 °F 1016.8 in Calm     58 % 0.0 in 322.0 W/m2 CLR
09:00 25.7 °F 16.6 °F 1016.8 in Calm     57 % 0.0 in 338.0 W/m2 CLR
09:05 25.9 °F 16.2 °F 1016.8 in Calm     55 % 0.0 in 357.0 W/m2 CLR
09:10 26.1 °F 16.4 °F 1016.8 in Calm     55 % 0.0 in 369.0 W/m2 CLR
09:15 26.4 °F 16.3 °F 1016.8 in Calm     54 % 0.0 in 385.0 W/m2 CLR
09:20 26.8 °F 16.7 °F 1016.8 in Calm     54 % 0.0 in 403.0 W/m2 CLR
09:25 26.9 °F 16.2 °F 1016.8 in Calm     52 % 0.0 in 417.0 W/m2 CLR
09:30 27.1 °F 16.1 °F 1016.8 in Calm     51 % 0.0 in 434.0 W/m2 CLR
09:35 27.2 °F 15.3 °F 1016.8 in Calm     48 % 0.0 in 443.0 W/m2 CLR
09:40 27.2 °F 15.9 °F 1016.8 in Calm     50 % 0.0 in 468.0 W/m2 CLR
09:45 27.3 °F 15.3 °F 1016.8 in Calm     48 % 0.0 in 475.0 W/m2 CLR
09:50 27.5 °F 15.8 °F 1016.8 in Calm     49 % 0.0 in 483.0 W/m2 CLR
09:55 27.8 °F 16.8 °F 1016.8 in Calm     51 % 0.0 in 483.0 W/m2 CLR
10:00 28.1 °F 16.4 °F 1016.8 in Calm     49 % 0.0 in 513.0 W/m2 CLR
10:05 28.2 °F 17.1 °F 1016.8 in ENE 5.6 mph 5.6 mph 51 % 0.0 in 527.0 W/m2 CLR
10:10 28.1 °F 15.7 °F 1016.8 in Calm     47 % 0.0 in 545.0 W/m2 CLR
10:15 28.2 °F 16.5 °F 1016.8 in Calm     49 % 0.0 in 555.0 W/m2 CLR
10:20 28.4 °F 16.9 °F 1016.8 in ENE 7.4 mph 7.4 mph 50 % 0.0 in 573.0 W/m2 CLR
10:25 28.4 °F 16.3 °F 1016.8 in Calm     48 % 0.0 in 585.0 W/m2 CLR
10:30 28.4 °F 17.3 °F 1016.8 in ESE 8.0 mph 8.0 mph 51 % 0.0 in 599.0 W/m2 CLR
10:35 28.7 °F 17.6 °F 1016.8 in Calm     51 % 0.0 in 613.0 W/m2 CLR
10:40 28.8 °F 17.6 °F 1016.8 in Calm     51 % 0.0 in 628.0 W/m2 CLR
10:45 29.0 °F 18.2 °F 1016.8 in ENE 5.6 mph 5.6 mph 52 % 0.0 in 638.0 W/m2 CLR
10:46 29.1 °F 17.9 °F 1016.8 in Calm     51 % 0.0 in 643.0 W/m2 CLR
10:50 29.2 °F 18.1 °F 1016.8 in NE 9.3 mph 9.3 mph 51 % 0.0 in 652.0 W/m2 CLR
10:55 29.2 °F 18.1 °F 1016.8 in ENE 14.8 mph 14.8 mph 51 % 0.0 in 664.0 W/m2 CLR
11:00 29.1 °F 17.9 °F 1016.8 in NE 7.4 mph 7.4 mph 51 % 0.0 in 677.0 W/m2 CLR
11:05 29.2 °F 18.0 °F 1016.8 in ENE 7.4 mph 7.4 mph 51 % 0.0 in 684.0 W/m2 CLR
11:10 29.2 °F 17.4 °F 1016.8 in Calm     49 % 0.0 in 700.0 W/m2 CLR
11:15 29.4 °F 17.6 °F 1017.2 in Calm     49 % 0.0 in 708.0 W/m2 CLR
11:20 29.6 °F 17.8 °F 1017.2 in NE 5.6 mph 5.6 mph 49 % 0.0 in 719.0 W/m2 CLR
11:25 29.8 °F 17.3 °F 1017.2 in NE 5.6 mph 5.6 mph 47 % 0.0 in 728.0 W/m2 CLR
11:30 29.8 °F 17.3 °F 1017.2 in Calm     47 % 0.0 in 742.0 W/m2 CLR
11:35 29.9 °F 18.0 °F 1017.2 in NE 9.3 mph   49 % 0.0 in 749.0 W/m2 CLR
11:40 30.2 °F 17.7 °F 1017.2 in ENE 7.4 mph 7.4 mph 47 % 0.0 in 759.0 W/m2 CLR
11:45 30.5 °F 17.6 °F 1017.2 in Calm     46 % 0.0 in 768.0 W/m2 CLR
11:50 30.7 °F 17.8 °F 1017.2 in Calm     46 % 0.0 in 782.0 W/m2 CLR
11:55 30.8 °F 17.9 °F 1017.2 in East 6.4 mph 6.4 mph 46 % 0.0 in 789.0 W/m2 CLR
12:00 30.8 °F 17.5 °F 1016.8 in ENE 5.6 mph 5.6 mph 45 % 0.0 in 802.0 W/m2 CLR
12:05 30.8 °F 17.9 °F 1016.8 in Calm     46 % 0.0 in 807.0 W/m2 CLR
12:10 31.1 °F 17.8 °F 1016.8 in NNE 8.0 mph 8.0 mph 45 % 0.0 in 814.0 W/m2 CLR
12:15 31.3 °F 17.9 °F 1016.8 in NNE 13.0 mph 13.0 mph 45 % 0.0 in 828.0 W/m2 CLR
12:20 31.2 °F 17.9 °F 1016.8 in East 5.6 mph 5.6 mph 45 % 0.0 in 831.0 W/m2 CLR
12:25 31.0 °F 17.7 °F 1016.8 in Calm     45 % 0.0 in 840.0 W/m2 CLR
12:30 31.1 °F 17.8 °F 1016.8 in ENE 5.6 mph 5.6 mph 45 % 0.0 in 844.0 W/m2 CLR
12:35 31.1 °F 17.8 °F 1016.8 in ENE 9.3 mph 9.3 mph 45 % 0.0 in 847.0 W/m2 CLR
12:40 31.0 °F 17.7 °F 1016.8 in NE 3.7 mph 4.0 mph 45 % 0.0 in 854.0 W/m2 CLR
12:41 30.9 °F 17.6 °F 1016.8 in ENE 9.7 mph 9.7 mph 45 % 0.0 in 854.0 W/m2 CLR
12:46 31.1 °F 17.7 °F 1016.8 in NNE 5.6 mph   45 % 0.0 in 861.0 W/m2 CLR
12:51 30.9 °F 17.6 °F 1016.8 in NE 11.1 mph 11.1 mph 45 % 0.0 in 867.0 W/m2 CLR
12:56 31.1 °F 17.8 °F 1016.8 in ENE 9.3 mph 9.3 mph 45 % 0.0 in 868.0 W/m2 CLR
13:01 31.3 °F 17.6 °F 1016.8 in East 3.7 mph 3.7 mph 44 % 0.0 in 877.0 W/m2 CLR
13:06 31.5 °F 17.4 °F 1016.8 in East 9.7 mph 9.7 mph 43 % 0.0 in 881.0 W/m2 CLR
13:11 31.6 °F 17.5 °F 1016.5 in Calm     43 % 0.0 in 888.0 W/m2 CLR
13:16 31.8 °F 17.7 °F 1016.5 in NE 20.4 mph 20.4 mph 43 % 0.0 in 889.0 W/m2 CLR
13:21 31.8 °F 17.3 °F 1016.5 in Calm     42 % 0.0 in 895.0 W/m2 CLR
13:26 32.0 °F 17.5 °F 1016.5 in ENE 3.7 mph 3.7 mph 42 % 0.0 in 888.0 W/m2 CLR
13:31 32.2 °F 17.7 °F 1016.5 in ENE 7.4 mph 7.4 mph 42 % 0.0 in 935.0 W/m2 CLR
13:36 32.2 °F 17.3 °F 1016.5 in Calm     41 % 0.0 in 937.0 W/m2 CLR
13:41 32.2 °F 17.3 °F 1016.5 in ENE 14.8 mph 14.8 mph 41 % 0.0 in 849.0 W/m2 CLR
13:46 32.3 °F 17.4 °F 1016.5 in ENE 14.8 mph 14.8 mph 41 % 0.0 in 918.0 W/m2 CLR
13:51 32.4 °F 17.1 °F 1016.5 in ENE 9.3 mph 9.3 mph 40 % 0.0 in 911.0 W/m2 CLR
13:56 32.4 °F 17.1 °F 1016.5 in ENE 1.9 mph   40 % 0.0 in 911.0 W/m2 CLR
14:01 32.4 °F 16.7 °F 1016.5 in East 1.9 mph 1.9 mph 39 % 0.0 in 909.0 W/m2 CLR
14:06 32.6 °F 16.8 °F 1016.5 in ENE 13.0 mph 13.0 mph 39 % 0.0 in 907.0 W/m2 CLR
14:11 32.7 °F 16.9 °F 1016.1 in ENE 9.3 mph 9.3 mph 39 % 0.0 in 911.0 W/m2 CLR
14:16 32.7 °F 16.9 °F 1016.1 in NE 5.6 mph 5.6 mph 39 % 0.0 in 916.0 W/m2 CLR
14:21 32.9 °F 17.2 °F 1016.1 in NE 7.4 mph 7.4 mph 39 % 0.0 in 919.0 W/m2 CLR
14:26 33.2 °F 16.9 °F 1016.1 in East 1.9 mph 1.9 mph 38 % 0.0 in 919.0 W/m2 CLR
14:31 33.4 °F 16.7 °F 1016.1 in Calm     37 % 0.0 in 923.0 W/m2 CLR
14:36 33.8 °F 16.6 °F 1015.8 in Calm     36 % 0.0 in 942.0 W/m2 CLR
14:41 33.7 °F 16.6 °F 1015.8 in ENE 5.6 mph 5.6 mph 36 % 0.0 in 905.0 W/m2 CLR
14:46 33.8 °F 16.6 °F 1015.8 in East 11.1 mph 11.1 mph 36 % 0.0 in 949.0 W/m2 CLR
14:51 33.7 °F 16.1 °F 1015.8 in NE 7.4 mph 7.4 mph 35 % 0.0 in 928.0 W/m2 CLR
14:56 33.6 °F 16.4 °F 1015.5 in Calm     36 % 0.0 in 911.0 W/m2 CLR
15:01 33.9 °F 16.7 °F 1015.5 in ESE 5.6 mph 5.6 mph 36 % 0.0 in 904.0 W/m2 CLR
15:06 33.9 °F 16.3 °F 1015.5 in East 7.4 mph 7.4 mph 35 % 0.0 in 888.0 W/m2 CLR
15:11 33.7 °F 16.1 °F 1015.1 in ESE 11.1 mph 11.1 mph 35 % 0.0 in 893.0 W/m2 CLR
15:16 33.7 °F 16.1 °F 1015.1 in Calm     35 % 0.0 in 884.0 W/m2 CLR
15:21 33.7 °F 16.6 °F 1015.1 in WSW 5.6 mph   36 % 0.0 in 877.0 W/m2 CLR
15:26 34.2 °F 16.1 °F 1014.8 in ENE 14.5 mph 14.5 mph 34 % 0.0 in 870.0 W/m2 CLR
15:31 34.5 °F 16.3 °F 1014.8 in NE 7.4 mph   34 % 0.0 in 867.0 W/m2 CLR
15:36 35.0 °F 16.3 °F 1014.8 in NE 9.3 mph 9.3 mph 33 % 0.0 in 853.0 W/m2 CLR
15:42 35.1 °F 16.4 °F 1014.8 in ENE 5.6 mph 6.9 mph 33 % 0.0 in 842.0 W/m2 CLR
15:47 34.9 °F 15.7 °F 1014.4 in WSW 5.6 mph 5.6 mph 32 % 0.0 in 849.0 W/m2 CLR
15:52 34.9 °F 16.3 °F 1014.4 in Calm   0.3 mph 33 % 0.0 in 860.0 W/m2 CLR
15:57 34.9 °F 15.7 °F 1014.4 in NE 5.6 mph 5.6 mph 32 % 0.0 in 875.0 W/m2 CLR
16:02 34.9 °F 15.7 °F 1014.4 in ENE 8.0 mph 8.0 mph 32 % 0.0 in 874.0 W/m2 CLR
16:07 34.8 °F 15.7 °F 1014.4 in ENE 18.5 mph 18.5 mph 32 % 0.0 in 856.0 W/m2 CLR
16:12 34.5 °F 15.9 °F 1014.1 in ESE 11.1 mph 11.1 mph 33 % 0.0 in 288.0 W/m2 CLR
16:17 34.4 °F 15.4 °F 1014.1 in NNE 13.0 mph 13.0 mph 32 % 0.0 in 838.0 W/m2 CLR
16:22 34.2 °F 15.2 °F 1014.1 in Calm     32 % 0.0 in 234.0 W/m2 CLR
16:27 34.1 °F 15.6 °F 1013.8 in South 7.4 mph 7.4 mph 33 % 0.0 in 898.0 W/m2 CLR
16:32 34.5 °F 15.4 °F 1013.8 in South 13.0 mph 13.0 mph 32 % 0.0 in 893.0 W/m2 CLR
16:37 34.9 °F 15.8 °F 1013.8 in South 9.7 mph 9.7 mph 32 % 0.0 in 765.0 W/m2 CLR
16:42 35.2 °F 17.0 °F 1014.1 in WNW 18.5 mph 18.5 mph 34 % 0.0 in 773.0 W/m2 CLR
16:47 34.6 °F 17.3 °F 1013.8 in ESE 18.5 mph 18.5 mph 36 % 0.0 in 258.0 W/m2 CLR
16:52 34.1 °F 17.8 °F 1013.8 in SSE 14.8 mph 14.8 mph 38 % 0.0 in 422.0 W/m2 CLR
16:57 33.9 °F 17.6 °F 1013.8 in SSE 9.7 mph 9.7 mph 38 % 0.0 in 422.0 W/m2 CLR
17:02 33.8 °F 17.6 °F 1013.8 in SSE 9.7 mph 9.7 mph 38 % 0.0 in 334.0 W/m2 CLR
17:07 33.9 °F 17.6 °F 1013.8 in Calm     38 % 0.0 in 246.0 W/m2 CLR
17:12 33.8 °F 17.6 °F 1013.8 in Calm     38 % 0.0 in 241.0 W/m2 CLR
17:17 33.6 °F 17.7 °F 1014.1 in SSW 13.0 mph 13.0 mph 39 % 0.0 in 221.0 W/m2 CLR
17:22 33.5 °F 18.1 °F 1014.1 in South 16.7 mph 16.7 mph 40 % 0.0 in 221.0 W/m2 CLR
17:27 33.2 °F 17.8 °F 1014.1 in SE 14.8 mph 14.8 mph 40 % 0.0 in 239.0 W/m2 CLR
17:32 33.0 °F 18.0 °F 1014.1 in SSE 19.3 mph 19.3 mph 41 % 0.0 in 244.0 W/m2 CLR
17:37 32.7 °F 18.1 °F 1014.4 in SSE 20.4 mph 20.4 mph 42 % 0.0 in 246.0 W/m2 CLR
17:42 32.5 °F 17.9 °F 1014.4 in South 20.4 mph 20.4 mph 42 % 0.0 in 230.0 W/m2 CLR
17:47 32.4 °F 18.2 °F 1014.4 in SSE 27.8 mph 27.8 mph 43 % 0.0 in 223.0 W/m2 CLR
17:52 32.1 °F 17.9 °F 1014.1 in SSE 27.8 mph 27.8 mph 43 % 0.0 in 202.0 W/m2 CLR
17:57 31.8 °F 17.7 °F 1014.1 in SSE 20.4 mph 20.4 mph 43 % 0.0 in 188.0 W/m2 CLR
18:02 31.7 °F 17.6 °F 1014.1 in South 14.8 mph 14.8 mph 43 % 0.0 in 183.0 W/m2 CLR
18:07 31.7 °F 17.6 °F 1014.1 in South 14.8 mph 14.8 mph 43 % 0.0 in 186.0 W/m2 CLR
18:12 31.4 °F 17.7 °F 1014.1 in South 22.2 mph 22.2 mph 44 % 0.0 in 197.0 W/m2 CLR
18:17 31.2 °F 17.5 °F 1014.1 in South 24.1 mph 24.1 mph 44 % 0.0 in 214.0 W/m2 CLR
18:22 31.2 °F 15.9 °F 1014.4 in South 27.8 mph 27.8 mph 40 % 0.0 in 230.0 W/m2 CLR
18:27 31.1 °F 15.4 °F 1014.4 in South 35.2 mph 35.2 mph 39 % 0.0 in 236.0 W/m2 CLR
18:32 31.1 °F 15.9 °F 1014.4 in South 22.2 mph 22.2 mph 40 % 0.0 in 199.0 W/m2 CLR
18:37 31.2 °F 16.4 °F 1014.4 in South 27.8 mph 27.8 mph 41 % 0.0 in 220.0 W/m2 CLR
18:42 31.3 °F 16.5 °F 1014.4 in SW 18.5 mph 18.5 mph 41 % 0.0 in 229.0 W/m2 CLR
18:47 31.3 °F 16.4 °F 1014.4 in SSW 22.2 mph 22.2 mph 41 % 0.0 in 214.0 W/m2 CLR
18:52 31.2 °F 16.8 °F 1014.4 in West 18.5 mph 18.5 mph 42 % 0.0 in 199.0 W/m2 CLR
18:57 31.2 °F 16.8 °F 1014.4 in SSW 14.8 mph 14.8 mph 42 % 0.0 in 183.0 W/m2 CLR
19:02 31.2 °F 16.4 °F 1014.4 in WSW 16.7 mph 16.7 mph 41 % 0.0 in 172.0 W/m2 CLR
19:07 31.1 °F 16.3 °F 1014.4 in SW 22.2 mph 22.2 mph 41 % 0.0 in 163.0 W/m2 CLR
19:12 30.8 °F 16.4 °F 1014.4 in WSW 20.4 mph 20.4 mph 42 % 0.0 in 155.0 W/m2 CLR
19:17 30.6 °F 16.2 °F 1014.4 in WSW 13.0 mph 13.0 mph 42 % 0.0 in 146.0 W/m2 CLR
19:22 30.3 °F 16.0 °F 1014.4 in SW 18.5 mph 18.5 mph 42 % 0.0 in 141.0 W/m2 CLR
19:27 30.3 °F 15.9 °F 1014.4 in SSW 11.1 mph 11.1 mph 42 % 0.0 in 134.0 W/m2 CLR
19:32 30.2 °F 15.9 °F 1014.4 in SW 13.0 mph 13.0 mph 42 % 0.0 in 128.0 W/m2 CLR
19:33 30.2 °F 15.9 °F 1014.4 in SW 13.0 mph 13.0 mph 42 % 0.0 in 128.0 W/m2 CLR
19:38 30.1 °F 15.4 °F 1014.8 in WSW 16.7 mph 16.7 mph 41 % 0.0 in 127.0 W/m2 CLR
19:43 30.2 °F 15.4 °F 1014.8 in WSW 20.4 mph 20.4 mph 41 % 0.0 in 128.0 W/m2 CLR
19:48 30.1 °F 15.0 °F 1014.8 in West 18.5 mph 18.5 mph 40 % 0.0 in 109.0 W/m2 CLR
19:53 30.0 °F 14.9 °F 1014.8 in WSW 25.9 mph 25.9 mph 40 % 0.0 in 104.0 W/m2 CLR
19:58 29.9 °F 14.4 °F 1014.8 in WSW 24.1 mph 24.1 mph 39 % 0.0 in 102.0 W/m2 CLR
20:03 29.8 °F 13.5 °F 1014.8 in SW 20.4 mph 20.4 mph 37 % 0.0 in 104.0 W/m2 CLR
20:08 29.7 °F 13.5 °F 1014.8 in SSW 20.4 mph 20.4 mph 37 % 0.0 in 111.0 W/m2 CLR
20:13 29.7 °F 13.8 °F 1014.8 in SSW 14.8 mph 14.8 mph 38 % 0.0 in 116.0 W/m2 CLR
20:18 29.7 °F 13.9 °F 1014.8 in SSW 18.5 mph 18.5 mph 38 % 0.0 in 132.0 W/m2 CLR
20:23 29.7 °F 13.8 °F 1014.8 in SW 20.4 mph 20.4 mph 38 % 0.0 in 123.0 W/m2 CLR
20:28 29.6 °F 13.7 °F 1014.8 in South 20.4 mph 20.4 mph 38 % 0.0 in 84.0 W/m2 CLR
20:33 29.4 °F 14.1 °F 1014.8 in SSW 18.5 mph 18.5 mph 39 % 0.0 in 113.0 W/m2 CLR
20:38 29.4 °F 14.1 °F 1014.8 in SSW 9.3 mph 9.3 mph 39 % 0.0 in 100.0 W/m2 CLR
20:43 29.4 °F 14.0 °F 1014.8 in SSW 11.1 mph 11.1 mph 39 % 0.0 in 51.0 W/m2 SCT
20:48 29.3 °F 13.9 °F 1014.8 in SSW 9.3 mph 9.3 mph 39 % 0.0 in 39.0 W/m2 BKN
20:53 29.2 °F 13.8 °F 1014.8 in Calm     39 % 0.0 in 32.0 W/m2 BKN
20:58 29.2 °F 14.2 °F 1014.8 in Calm     40 % 0.0 in 28.0 W/m2 BKN
21:03 28.8 °F 14.6 °F 1014.8 in ESE 13.0 mph 13.0 mph 42 % 0.0 in 25.0 W/m2 BKN
21:08 28.6 °F 14.4 °F 1014.8 in ESE 9.3 mph 9.3 mph 42 % 0.0 in 19.0 W/m2 BKN
21:13 28.3 °F 14.6 °F 1014.8 in Calm     43 % 0.0 in 14.0 W/m2 BKN
21:18 28.2 °F 14.4 °F 1014.8 in Calm     43 % 0.0 in 9.0 W/m2 BKN
21:23 28.1 °F 14.3 °F 1014.8 in Calm     43 % 0.0 in 7.0 W/m2 BKN
21:28 28.1 °F 14.3 °F 1014.8 in Calm     43 % 0.0 in 5.0 W/m2 OVC
21:33 28.0 °F 14.3 °F 1014.8 in Calm     43 % 0.0 in 0.0 W/m2 OVC
21:38 28.0 °F 13.9 °F 1014.8 in Calm     42 % 0.0 in 0.0 W/m2 OVC
21:43 28.0 °F 13.9 °F 1014.8 in Calm     42 % 0.0 in 0.0 W/m2 OVC
21:48 27.9 °F 13.8 °F 1014.8 in Calm     42 % 0.0 in 0.0 W/m2 CLR
21:53 27.7 °F 14.0 °F 1014.8 in Calm     43 % 0.0 in 0.0 W/m2 CLR
21:58 27.3 °F 13.7 °F 1015.1 in WSW 7.4 mph 7.4 mph 43 % 0.0 in 0.0 W/m2 CLR
22:03 27.1 °F 13.8 °F 1015.1 in WSW 7.4 mph 7.4 mph 44 % 0.0 in 0.0 W/m2 CLR
22:08 27.0 °F 13.7 °F 1015.1 in Calm     44 % 0.0 in 0.0 W/m2 CLR
22:13 26.9 °F 13.7 °F 1015.1 in Calm     44 % 0.0 in 0.0 W/m2 CLR
22:18 26.8 °F 13.9 °F 1015.5 in Calm     45 % 0.0 in 0.0 W/m2 CLR
22:23 26.7 °F 13.7 °F 1015.5 in Calm     45 % 0.0 in 0.0 W/m2 CLR
22:28 26.6 °F 14.1 °F 1015.5 in Calm     46 % 0.0 in 0.0 W/m2 CLR
22:33 26.3 °F 14.1 °F 1015.5 in Calm     47 % 0.0 in 0.0 W/m2 CLR
22:38 26.1 °F 14.2 °F 1015.5 in Calm     48 % 0.0 in 0.0 W/m2 CLR
22:43 25.9 °F 14.3 °F 1015.8 in Calm     49 % 0.0 in 0.0 W/m2 CLR
22:48 25.7 °F 14.8 °F 1015.8 in Calm     51 % 0.0 in 0.0 W/m2 CLR
22:53 25.6 °F 14.9 °F 1015.8 in Calm     52 % 0.0 in 0.0 W/m2 CLR
22:58 25.5 °F 14.9 °F 1015.8 in Calm     52 % 0.0 in 0.0 W/m2 CLR
23:03 25.5 °F 14.9 °F 1015.8 in Calm     52 % 0.0 in 0.0 W/m2 CLR
23:04 25.5 °F 14.9 °F 1015.8 in Calm     52 % 0.0 in 0.0 W/m2 CLR
23:09 25.4 °F 15.7 °F 1016.1 in Calm     55 % 0.0 in 0.0 W/m2 CLR
23:14 25.4 °F 16.3 °F 1016.1 in Calm     57 % 0.0 in 0.0 W/m2 CLR
23:19 25.3 °F 16.2 °F 1016.1 in Calm     57 % 0.0 in 0.0 W/m2 CLR
23:24 25.3 °F 16.2 °F 1016.1 in Calm     57 % 0.0 in 0.0 W/m2 CLR
23:29 25.2 °F 16.1 °F 1016.1 in Calm     57 % 0.0 in 0.0 W/m2 CLR
23:34 25.1 °F 16.3 °F 1016.1 in Calm     58 % 0.0 in 0.0 W/m2 CLR
23:39 25.1 °F 16.2 °F 1016.1 in Calm     58 % 0.0 in 0.0 W/m2 CLR
23:44 25.0 °F 15.9 °F 1016.1 in Calm     57 % 0.0 in 0.0 W/m2 CLR
23:49 24.9 °F 15.6 °F 1015.8 in Calm     56 % 0.0 in 0.0 W/m2 CLR
23:54 24.9 °F 15.6 °F 1015.8 in Calm     56 % 0.0 in 0.0 W/m2 CLR
23:59 24.9 °F 15.2 °F 1015.8 in Calm     55 % 0.0 in 0.0 W/m2 CLR
Lo Temps de Massalio
Compliments of Weather Underground - 1.25 mb